createdAt,value
2023-05-03T00:00:09.418Z,102085.91
2023-05-03T00:02:39.357Z,102096.38
2023-05-03T00:05:13.180Z,102098.06
2023-05-03T00:07:44.821Z,102094.41
2023-05-03T00:10:16.118Z,102084.72
2023-05-03T00:12:45.518Z,102089.16
2023-05-03T00:15:13.736Z,102098.00
2023-05-03T00:17:42.350Z,102099.81
2023-05-03T00:20:12.983Z,102116.56
2023-05-03T00:22:41.216Z,102117.41
2023-05-03T00:25:10.569Z,102113.84
2023-05-03T00:27:38.832Z,102110.34
2023-05-03T00:30:08.327Z,102119.06
2023-05-03T00:32:37.172Z,102117.16
2023-05-03T00:35:05.753Z,102091.22
2023-05-03T00:37:35.723Z,102113.25
2023-05-03T00:40:05.252Z,102109.53
2023-05-03T00:42:36.451Z,102112.97
2023-05-03T00:45:06.481Z,102111.19
2023-05-03T00:47:35.269Z,102119.16
2023-05-03T00:50:03.894Z,102117.56
2023-05-03T00:52:32.744Z,102107.78
2023-05-03T00:55:03.305Z,102116.59
2023-05-03T00:57:32.498Z,102119.16
2023-05-03T01:00:01.577Z,102114.66
2023-05-03T01:02:30.788Z,102116.31
2023-05-03T01:04:59.120Z,102117.13
2023-05-03T01:07:42.502Z,102117.16
2023-05-03T01:10:23.032Z,102111.19
2023-05-03T01:12:58.270Z,102128.91
2023-05-03T01:15:40.884Z,102125.25
2023-05-03T01:18:13.726Z,102126.91
2023-05-03T01:20:48.503Z,102133.34
2023-05-03T01:23:29.760Z,102127.03
2023-05-03T01:25:59.585Z,102132.03
2023-05-03T01:28:27.894Z,102131.91
2023-05-03T01:30:58.236Z,102144.00
2023-05-03T01:33:35.051Z,102139.72
2023-05-03T01:36:12.300Z,102142.28
2023-05-03T01:38:41.415Z,102140.63
2023-05-03T01:41:14.941Z,102146.00
2023-05-03T01:43:45.169Z,102152.88
2023-05-03T01:46:14.315Z,102149.25
2023-05-03T01:48:43.186Z,102149.41
2023-05-03T01:51:11.549Z,102142.34
2023-05-03T01:53:41.816Z,102138.81
2023-05-03T01:56:11.826Z,102147.47
2023-05-03T01:58:40.112Z,102134.97
2023-05-03T02:01:08.561Z,102149.06
2023-05-03T02:03:37.037Z,102159.50
2023-05-03T02:06:05.977Z,102157.81
2023-05-03T02:08:34.299Z,102158.66
2023-05-03T02:11:02.971Z,102161.31
2023-05-03T02:13:33.086Z,102167.53
2023-05-03T02:16:01.236Z,102170.16
2023-05-03T02:18:31.793Z,102168.72
2023-05-03T02:21:00.368Z,102170.09
2023-05-03T02:23:28.626Z,102178.25
2023-05-03T02:25:56.981Z,102165.03
2023-05-03T02:28:25.433Z,102171.06
2023-05-03T02:30:55.326Z,102176.56
2023-05-03T02:33:23.973Z,102184.53
2023-05-03T02:35:52.138Z,102177.59
2023-05-03T02:38:20.299Z,102186.25
2023-05-03T02:40:48.489Z,102182.34
2023-05-03T02:43:16.808Z,102188.41
2023-05-03T02:45:44.941Z,102183.81
2023-05-03T02:48:16.454Z,102197.66
2023-05-03T02:50:44.912Z,102191.28
2023-05-03T02:53:12.991Z,102207.97
2023-05-03T02:55:41.432Z,102204.63
2023-05-03T02:58:10.316Z,102214.47
2023-05-03T03:00:38.540Z,102217.19
2023-05-03T03:03:07.214Z,102212.75
2023-05-03T03:05:37.367Z,102213.56
2023-05-03T03:08:06.194Z,102224.00
2023-05-03T03:10:34.964Z,102218.91
2023-05-03T03:13:03.347Z,102217.16
2023-05-03T03:15:31.832Z,102222.69
2023-05-03T03:18:00.353Z,102218.00
2023-05-03T03:20:28.814Z,102220.19
2023-05-03T03:22:58.628Z,102223.63
2023-05-03T03:25:27.176Z,102223.56
2023-05-03T03:27:55.673Z,102226.69
2023-05-03T03:30:23.834Z,102225.56
2023-05-03T03:32:52.127Z,102235.44
2023-05-03T03:35:21.588Z,102233.72
2023-05-03T03:37:49.958Z,102241.72
2023-05-03T03:40:19.826Z,102249.28
2023-05-03T03:42:48.391Z,102239.56
2023-05-03T03:45:16.454Z,102249.75
2023-05-03T03:47:44.724Z,102243.03
2023-05-03T03:50:13.026Z,102249.91
2023-05-03T03:52:41.331Z,102246.09
2023-05-03T03:55:10.607Z,102226.16
2023-05-03T03:57:40.544Z,102237.88
2023-05-03T04:00:11.886Z,102247.00
2023-05-03T04:02:41.044Z,102244.16
2023-05-03T04:05:09.993Z,102254.31
2023-05-03T04:07:38.539Z,102252.75
2023-05-03T04:10:07.718Z,102247.56
2023-05-03T04:12:35.920Z,102247.75
2023-05-03T04:15:06.258Z,102260.78
2023-05-03T04:17:35.239Z,102260.34
2023-05-03T04:20:08.459Z,102266.22
2023-05-03T04:22:36.744Z,102243.66
2023-05-03T04:25:05.468Z,102255.16
2023-05-03T04:27:33.716Z,102260.63
2023-05-03T04:30:08.075Z,102260.63
2023-05-03T04:32:37.919Z,102258.59
2023-05-03T04:35:09.760Z,102264.72
2023-05-03T04:37:38.761Z,102266.66
2023-05-03T04:40:09.775Z,102264.06
2023-05-03T04:42:38.009Z,102253.03
2023-05-03T04:45:09.903Z,102275.13
2023-05-03T04:47:38.185Z,102278.94
2023-05-03T04:50:08.061Z,102279.91
2023-05-03T04:52:37.288Z,102281.66
2023-05-03T04:55:06.623Z,102281.91
2023-05-03T04:57:35.639Z,102295.25
2023-05-03T05:00:07.763Z,102296.09
2023-05-03T05:02:37.404Z,102260.09
2023-05-03T05:05:05.952Z,102292.31
2023-05-03T05:07:34.585Z,102306.56
2023-05-03T05:10:03.059Z,102307.69
2023-05-03T05:12:31.835Z,102304.19
2023-05-03T05:15:00.094Z,102303.63
2023-05-03T05:17:28.463Z,102295.56
2023-05-03T05:19:58.176Z,102306.28
2023-05-03T05:22:26.598Z,102308.06
2023-05-03T05:24:54.836Z,102320.34
2023-05-03T05:27:23.800Z,102321.53
2023-05-03T05:29:52.427Z,102311.59
2023-05-03T05:32:20.548Z,102323.88
2023-05-03T05:34:53.112Z,102326.88
2023-05-03T05:37:23.253Z,102329.66
2023-05-03T05:39:51.600Z,102335.03
2023-05-03T05:42:19.856Z,102331.47
2023-05-03T05:44:48.096Z,102320.94
2023-05-03T05:47:16.804Z,102338.63
2023-05-03T05:49:45.155Z,102338.69
2023-05-03T05:52:13.538Z,102342.31
2023-05-03T05:54:43.362Z,102338.84
2023-05-03T05:57:12.669Z,102336.56
2023-05-03T05:59:41.064Z,102339.34
2023-05-03T06:02:16.758Z,102334.00
2023-05-03T06:04:45.587Z,102358.91
2023-05-03T06:07:14.632Z,102353.47
2023-05-03T06:09:44.392Z,102366.19
2023-05-03T06:12:12.621Z,102371.47
2023-05-03T06:14:46.267Z,102366.38
2023-05-03T06:17:20.256Z,102370.19
2023-05-03T06:19:49.459Z,102370.94
2023-05-03T06:22:17.757Z,102369.06
2023-05-03T06:24:47.812Z,102364.09
2023-05-03T06:27:15.954Z,102373.03
2023-05-03T06:29:45.018Z,102378.13
2023-05-03T06:32:13.293Z,102377.47
2023-05-03T06:34:41.559Z,102366.81
2023-05-03T06:37:10.067Z,102375.09
2023-05-03T06:39:38.602Z,102377.09
2023-05-03T06:42:09.023Z,102380.69
2023-05-03T06:44:37.205Z,102376.28
2023-05-03T06:47:05.510Z,102379.84
2023-05-03T06:49:34.171Z,102382.72
2023-05-03T06:52:02.381Z,102385.59
2023-05-03T06:54:30.993Z,102394.50
2023-05-03T06:56:59.677Z,102380.22
2023-05-03T06:59:29.464Z,102378.47
2023-05-03T07:01:57.767Z,102396.09
2023-05-03T07:04:25.959Z,102397.13
2023-05-03T07:06:56.850Z,102392.72
2023-05-03T07:09:41.353Z,102399.97
2023-05-03T07:12:10.597Z,102396.66
2023-05-03T07:14:43.234Z,102391.47
2023-05-03T07:17:11.924Z,102392.47
2023-05-03T07:19:40.325Z,102394.28
2023-05-03T07:22:08.573Z,102402.25
2023-05-03T07:24:36.840Z,102397.78
2023-05-03T07:27:05.536Z,102403.66
2023-05-03T07:29:34.095Z,102402.63
2023-05-03T07:32:03.742Z,102407.38
2023-05-03T07:34:32.879Z,102405.75
2023-05-03T07:37:01.243Z,102393.47
2023-05-03T07:39:29.506Z,102391.84
2023-05-03T07:41:57.821Z,102398.97
2023-05-03T07:44:26.228Z,102397.28
2023-05-03T07:46:54.456Z,102405.03
2023-05-03T07:49:24.449Z,102382.28
2023-05-03T07:51:53.313Z,102385.78
2023-05-03T07:54:22.008Z,102395.56
2023-05-03T07:56:50.094Z,102409.72
2023-05-03T07:59:18.272Z,102404.38
2023-05-03T08:01:46.571Z,102411.50
2023-05-03T08:04:15.450Z,102409.81
2023-05-03T08:06:45.543Z,102417.25
2023-05-03T08:09:14.158Z,102408.53
2023-05-03T08:11:43.975Z,102408.53
2023-05-03T08:14:12.924Z,102416.38
2023-05-03T08:16:41.467Z,102418.84
2023-05-03T08:19:09.555Z,102410.03
2023-05-03T08:21:38.176Z,102420.69
2023-05-03T08:24:08.613Z,102413.56
2023-05-03T08:26:37.742Z,102415.53
2023-05-03T08:29:06.049Z,102420.88
2023-05-03T08:31:35.517Z,102395.03
2023-05-03T08:34:04.107Z,102414.22
2023-05-03T08:36:33.190Z,102415.22
2023-05-03T08:39:02.207Z,102415.41
2023-05-03T08:41:32.708Z,102419.69
2023-05-03T08:44:04.420Z,102414.56
2023-05-03T08:46:37.220Z,102420.88
2023-05-03T08:49:06.911Z,102424.22
2023-05-03T08:51:36.156Z,102429.44
2023-05-03T08:54:04.220Z,102429.63
2023-05-03T08:56:38.058Z,102421.75
2023-05-03T08:59:09.339Z,102433.06
2023-05-03T09:01:38.425Z,102429.47
2023-05-03T09:04:07.828Z,102436.56
2023-05-03T09:06:36.909Z,102433.16
2023-05-03T09:09:08.005Z,102446.47
2023-05-03T09:11:39.466Z,102448.28
2023-05-03T09:14:12.444Z,102442.16
2023-05-03T09:16:41.937Z,102436.81
2023-05-03T09:19:12.004Z,102449.13
2023-05-03T09:21:43.190Z,102447.28
2023-05-03T09:24:16.105Z,102451.94
2023-05-03T09:26:47.393Z,102454.56
2023-05-03T09:29:30.602Z,102433.28
2023-05-03T09:32:04.917Z,102452.78
2023-05-03T09:34:33.501Z,102456.31
2023-05-03T09:37:01.956Z,102449.25
2023-05-03T09:39:30.727Z,102459.88
2023-05-03T09:42:00.910Z,102468.72
2023-05-03T09:44:43.102Z,102458.09
2023-05-03T09:47:13.001Z,102461.66
2023-05-03T09:49:41.405Z,102465.19
2023-05-03T09:52:11.338Z,102442.16
2023-05-03T09:54:40.927Z,102453.69
2023-05-03T09:57:10.873Z,102466.97
2023-05-03T09:59:40.662Z,102458.09
2023-05-03T10:02:09.769Z,102459.88
2023-05-03T10:04:43.556Z,102470.47
2023-05-03T10:07:15.525Z,102468.75
2023-05-03T10:09:45.978Z,102465.19
2023-05-03T10:12:17.897Z,102473.16
2023-05-03T10:14:48.652Z,102466.97
2023-05-03T10:17:31.961Z,102479.34
2023-05-03T10:20:14.147Z,102484.63
2023-05-03T10:23:11.052Z,102481.13
2023-05-03T10:25:41.183Z,102472.28
2023-05-03T10:28:11.246Z,102480.22
2023-05-03T10:30:40.711Z,102472.28
2023-05-03T10:33:35.245Z,102478.47
2023-05-03T10:36:07.746Z,102481.09
2023-05-03T10:38:39.577Z,102477.56
2023-05-03T10:41:07.957Z,102471.38
2023-05-03T10:43:47.106Z,102483.75
2023-05-03T10:46:35.009Z,102484.59
2023-05-03T10:49:23.187Z,102479.31
2023-05-03T10:51:51.830Z,102497.03
2023-05-03T10:54:20.344Z,102491.69
2023-05-03T10:56:53.413Z,102484.66
2023-05-03T10:59:24.558Z,102475.78
2023-05-03T11:01:54.956Z,102481.97
2023-05-03T11:04:40.649Z,102494.41
2023-05-03T11:07:10.538Z,102495.28
2023-05-03T11:09:39.042Z,102478.44
2023-05-03T11:12:09.963Z,102499.69
2023-05-03T11:14:40.497Z,102498.78
2023-05-03T11:17:08.730Z,102491.69
2023-05-03T11:19:38.028Z,102498.81
2023-05-03T11:22:06.708Z,102499.72
2023-05-03T11:24:34.752Z,102505.91
2023-05-03T11:27:08.381Z,102505.91
2023-05-03T11:29:37.850Z,102496.16
2023-05-03T11:32:09.713Z,102502.31
2023-05-03T11:34:41.257Z,102505.91
2023-05-03T11:37:11.137Z,102496.16
2023-05-03T11:39:39.208Z,102491.78
2023-05-03T11:42:08.594Z,102495.31
2023-05-03T11:44:37.788Z,102497.06
2023-05-03T11:47:07.898Z,102482.00
2023-05-03T11:49:36.646Z,102497.06
2023-05-03T11:52:05.043Z,102498.81
2023-05-03T11:54:33.158Z,102491.72
2023-05-03T11:57:02.083Z,102511.22
2023-05-03T11:59:38.248Z,102502.34
2023-05-03T12:02:09.708Z,102492.66
2023-05-03T12:04:41.681Z,102495.28
2023-05-03T12:07:12.087Z,102493.50
2023-05-03T12:09:44.526Z,102490.88
2023-05-03T12:12:25.064Z,102495.31
2023-05-03T12:14:59.867Z,102492.63
2023-05-03T12:17:44.106Z,102488.22
2023-05-03T12:22:51.976Z,102493.56
2023-05-03T12:25:21.748Z,102501.50
2023-05-03T12:28:12.774Z,102500.59
2023-05-03T12:30:45.797Z,102499.72
2023-05-03T12:33:21.846Z,102505.91
2023-05-03T12:35:53.508Z,102488.19
2023-05-03T12:38:24.181Z,102509.50
2023-05-03T12:40:54.591Z,102508.56
2023-05-03T12:43:23.230Z,102500.59
2023-05-03T12:46:09.345Z,102504.13
2023-05-03T12:48:44.038Z,102523.63
2023-05-03T12:53:47.407Z,102511.25
2023-05-03T12:56:16.391Z,102513.00
2023-05-03T12:59:07.501Z,102498.81
2023-05-03T13:02:41.075Z,102506.81
2023-05-03T13:07:00.205Z,102503.28
2023-05-03T13:09:38.551Z,102449.22
2023-05-03T13:12:18.511Z,102497.09
2023-05-03T13:14:47.589Z,102500.63
2023-05-03T13:17:16.082Z,102486.47
2023-05-03T13:19:47.341Z,102496.22
2023-05-03T13:22:16.436Z,102498.81
2023-05-03T13:24:46.460Z,102502.38
2023-05-03T13:27:14.980Z,102505.03
2023-05-03T13:29:43.879Z,102491.78
2023-05-03T13:32:13.276Z,102483.78
2023-05-03T13:34:41.593Z,102488.22
2023-05-03T13:37:11.701Z,102484.66
2023-05-03T13:39:40.050Z,102489.97
2023-05-03T13:42:08.310Z,102495.28
2023-05-03T13:44:36.442Z,102492.66
2023-05-03T13:47:04.632Z,102485.53
2023-05-03T13:49:32.992Z,102487.31
2023-05-03T13:52:01.226Z,102497.06
2023-05-03T13:54:32.207Z,102497.94
2023-05-03T13:57:01.768Z,102507.66
2023-05-03T13:59:30.305Z,102502.34
2023-05-03T14:01:58.402Z,102506.78
2023-05-03T14:04:27.104Z,102498.81
2023-05-03T14:06:55.494Z,102496.13
2023-05-03T14:09:23.658Z,102511.19
2023-05-03T14:11:55.109Z,102516.41
2023-05-03T14:14:28.120Z,102508.47
2023-05-03T14:16:56.303Z,102511.16
2023-05-03T14:19:24.382Z,102500.47
2023-05-03T14:21:52.816Z,102507.41
2023-05-03T14:24:21.111Z,102509.31
2023-05-03T14:26:49.242Z,102504.94
2023-05-03T14:29:18.837Z,102503.22
2023-05-03T14:31:47.088Z,102509.41
2023-05-03T14:34:15.205Z,102504.13
2023-05-03T14:36:44.033Z,102504.13
2023-05-03T14:39:14.637Z,102489.97
2023-05-03T14:41:45.746Z,102512.97
2023-05-03T14:44:14.054Z,102458.91
2023-05-03T14:46:43.852Z,102509.44
2023-05-03T14:49:12.155Z,102511.19
2023-05-03T14:51:42.921Z,102511.19
2023-05-03T14:54:13.252Z,102497.06
2023-05-03T14:56:42.183Z,102507.66
2023-05-03T14:59:10.622Z,102509.38
2023-05-03T15:01:39.041Z,102507.56
2023-05-03T15:04:10.797Z,102509.34
2023-05-03T15:06:41.426Z,102505.81
2023-05-03T15:09:12.101Z,102504.06
2023-05-03T15:11:40.885Z,102502.31
2023-05-03T15:14:09.742Z,102477.56
2023-05-03T15:16:38.677Z,102508.50
2023-05-03T15:19:08.688Z,102510.25
2023-05-03T15:21:47.341Z,102506.72
2023-05-03T15:24:15.471Z,102510.97
2023-05-03T15:26:43.741Z,102514.59
2023-05-03T15:29:12.715Z,102507.63
2023-05-03T15:31:41.316Z,102512.94
2023-05-03T15:34:12.605Z,102512.06
2023-05-03T15:36:41.236Z,102516.47
2023-05-03T15:39:09.847Z,102511.16
2023-05-03T15:41:37.978Z,102510.28
2023-05-03T15:44:08.468Z,102515.44
2023-05-03T15:46:36.801Z,102506.53
2023-05-03T15:49:05.380Z,102507.47
2023-05-03T15:51:35.364Z,102509.25
2023-05-03T15:54:03.838Z,102511.91
2023-05-03T15:56:32.370Z,102503.91
2023-05-03T15:59:01.296Z,102508.44
2023-05-03T16:01:29.623Z,102500.41
2023-05-03T16:03:57.876Z,102505.78
2023-05-03T16:06:26.444Z,102501.38
2023-05-03T16:08:56.124Z,102514.69
2023-05-03T16:11:24.393Z,102512.94
2023-05-03T16:13:52.773Z,102509.34
2023-05-03T16:16:21.174Z,102507.59
2023-05-03T16:18:49.402Z,102509.34
2023-05-03T16:21:17.710Z,102510.19
2023-05-03T16:23:46.618Z,102508.50
2023-05-03T16:26:16.258Z,102508.44
2023-05-03T16:28:44.728Z,102506.63
2023-05-03T16:31:14.174Z,102512.72
2023-05-03T16:33:42.471Z,102512.72
2023-05-03T16:36:11.024Z,102503.94
2023-05-03T16:38:39.089Z,102512.81
2023-05-03T16:41:07.461Z,102510.06
2023-05-03T16:43:38.309Z,102505.66
2023-05-03T16:46:06.871Z,102507.31
2023-05-03T16:48:35.438Z,102505.41
2023-05-03T16:51:03.912Z,102512.53
2023-05-03T16:53:32.610Z,102514.28
2023-05-03T16:56:01.796Z,102503.72
2023-05-03T16:58:30.223Z,102508.97
2023-05-03T17:00:59.923Z,102504.59
2023-05-03T17:03:28.114Z,102500.22
2023-05-03T17:05:56.563Z,102512.63
2023-05-03T17:08:25.032Z,102489.66
2023-05-03T17:10:54.385Z,102505.53
2023-05-03T17:13:22.596Z,102501.03
2023-05-03T17:15:50.695Z,102501.81
2023-05-03T17:18:20.292Z,102489.25
2023-05-03T17:20:48.692Z,102508.72
2023-05-03T17:23:19.296Z,102508.69
2023-05-03T17:25:48.847Z,102498.00
2023-05-03T17:28:17.471Z,102499.16
2023-05-03T17:30:45.671Z,102510.69
2023-05-03T17:33:13.819Z,102505.34
2023-05-03T17:35:43.338Z,102505.25
2023-05-03T17:38:12.781Z,102491.03
2023-05-03T17:40:43.248Z,102495.38
2023-05-03T17:43:12.481Z,102510.56
2023-05-03T17:45:43.017Z,102514.22
2023-05-03T17:48:12.090Z,102512.41
2023-05-03T17:50:41.941Z,102526.38
2023-05-03T17:53:11.639Z,102528.13
2023-05-03T17:55:40.730Z,102531.47
2023-05-03T17:58:11.016Z,102531.34
2023-05-03T18:00:39.739Z,102534.78
2023-05-03T18:03:08.560Z,102533.13
2023-05-03T18:05:38.248Z,102524.19
2023-05-03T18:08:06.654Z,102527.66
2023-05-03T18:10:36.352Z,102532.97
2023-05-03T18:13:05.439Z,102541.75
2023-05-03T18:15:33.625Z,102539.97
2023-05-03T18:18:02.986Z,102540.09
2023-05-03T18:20:31.365Z,102542.72
2023-05-03T18:23:01.704Z,102537.97
2023-05-03T18:25:33.534Z,102544.06
2023-05-03T18:28:06.265Z,102514.66
2023-05-03T18:30:37.808Z,102542.84
2023-05-03T18:33:12.437Z,102557.25
2023-05-03T18:35:41.703Z,102558.28
2023-05-03T18:38:10.381Z,102562.59
2023-05-03T18:40:38.855Z,102558.09
2023-05-03T18:43:09.286Z,102564.31
2023-05-03T18:45:39.186Z,102564.38
2023-05-03T18:48:07.715Z,102555.50
2023-05-03T18:50:38.443Z,102564.31
2023-05-03T18:53:07.443Z,102568.16
2023-05-03T18:55:35.455Z,102573.59
2023-05-03T18:58:03.799Z,102569.84
2023-05-03T19:00:33.623Z,102580.47
2023-05-03T19:03:02.186Z,102577.88
2023-05-03T19:05:30.897Z,102573.44
2023-05-03T19:08:00.201Z,102570.78
2023-05-03T19:10:28.526Z,102581.19
2023-05-03T19:12:57.698Z,102581.28
2023-05-03T19:15:26.026Z,102585.78
2023-05-03T19:17:56.189Z,102586.38
2023-05-03T19:20:24.528Z,102586.47
2023-05-03T19:22:53.008Z,102583.59
2023-05-03T19:25:21.246Z,102523.13
2023-05-03T19:27:49.493Z,102587.03
2023-05-03T19:30:17.929Z,102594.28
2023-05-03T19:32:46.455Z,102579.22
2023-05-03T19:35:16.385Z,102592.38
2023-05-03T19:37:45.086Z,102597.88
2023-05-03T19:40:14.494Z,102595.22
2023-05-03T19:42:42.843Z,102594.06
2023-05-03T19:45:11.579Z,102593.13
2023-05-03T19:47:39.757Z,102594.13
2023-05-03T19:50:08.734Z,102595.03
2023-05-03T19:52:38.708Z,102594.31
2023-05-03T19:55:08.447Z,102602.75
2023-05-03T19:57:37.360Z,102600.75
2023-05-03T20:00:07.246Z,102598.97
2023-05-03T20:02:36.855Z,102600.00
2023-05-03T20:05:05.984Z,102605.97
2023-05-03T20:07:34.113Z,102604.88
2023-05-03T20:10:04.064Z,102607.31
2023-05-03T20:12:33.208Z,102603.66
2023-05-03T20:15:01.699Z,102603.66
2023-05-03T20:17:30.008Z,102612.09
2023-05-03T20:20:07.616Z,102624.66
2023-05-03T20:22:35.677Z,102616.09
2023-05-03T20:25:06.097Z,102624.84
2023-05-03T20:27:34.670Z,102610.78
2023-05-03T20:30:04.582Z,102615.88
2023-05-03T20:32:32.962Z,102615.06
2023-05-03T20:35:01.400Z,102615.00
2023-05-03T20:37:30.153Z,102608.16
2023-05-03T20:39:58.518Z,102600.44
2023-05-03T20:42:28.310Z,102602.88
2023-05-03T20:44:56.412Z,102615.25
2023-05-03T20:47:24.853Z,102618.78
2023-05-03T20:49:53.016Z,102626.53
2023-05-03T20:52:21.316Z,102622.09
2023-05-03T20:54:49.580Z,102617.56
2023-05-03T20:57:22.639Z,102622.84
2023-05-03T20:59:52.750Z,102617.56
2023-05-03T21:02:20.898Z,102605.06
2023-05-03T21:04:49.248Z,102620.91
2023-05-03T21:07:17.331Z,102624.25
2023-05-03T21:09:45.609Z,102615.63
2023-05-03T21:12:13.863Z,102625.34
2023-05-03T21:14:42.351Z,102606.75
2023-05-03T21:17:12.382Z,102606.75
2023-05-03T21:19:41.172Z,102613.75
2023-05-03T21:22:09.345Z,102606.28
2023-05-03T21:24:37.516Z,102608.06
2023-05-03T21:27:05.916Z,102595.84
2023-05-03T21:29:33.968Z,102611.59
2023-05-03T21:32:02.493Z,102597.38
2023-05-03T21:34:32.548Z,102602.84
2023-05-03T21:37:03.845Z,102600.28
2023-05-03T21:39:32.853Z,102595.16
2023-05-03T21:42:02.115Z,102607.13
2023-05-03T21:44:33.072Z,102602.56
2023-05-03T21:47:02.056Z,102601.78
2023-05-03T21:49:32.232Z,102621.16
2023-05-03T21:52:00.479Z,102613.88
2023-05-03T21:54:28.667Z,102612.16
2023-05-03T21:56:56.836Z,102604.88
2023-05-03T21:59:25.238Z,102610.84
2023-05-03T22:01:53.797Z,102605.44
2023-05-03T22:04:21.962Z,102612.25
2023-05-03T22:06:51.744Z,102615.06
2023-05-03T22:09:20.002Z,102615.06
2023-05-03T22:11:48.330Z,102604.50
2023-05-03T22:14:16.397Z,102603.50
2023-05-03T22:16:44.968Z,102594.50
2023-05-03T22:19:13.804Z,102606.88
2023-05-03T22:21:42.556Z,102604.22
2023-05-03T22:24:12.455Z,102611.25
2023-05-03T22:26:40.774Z,102609.50
2023-05-03T22:29:09.299Z,102614.00
2023-05-03T22:31:37.967Z,102618.25
2023-05-03T22:34:06.301Z,102596.75
2023-05-03T22:36:34.667Z,102612.59
2023-05-03T22:39:05.521Z,102616.13
2023-05-03T22:41:35.262Z,102609.13
2023-05-03T22:44:03.650Z,102622.94
2023-05-03T22:46:34.727Z,102615.91
2023-05-03T22:49:04.126Z,102614.31
2023-05-03T22:51:32.755Z,102614.00
2023-05-03T22:54:01.025Z,102606.88
2023-05-03T22:56:29.550Z,102620.03
2023-05-03T22:58:59.294Z,102626.13
2023-05-03T23:01:27.658Z,102597.63
2023-05-03T23:03:56.387Z,102613.75
2023-05-03T23:06:25.214Z,102629.44
2023-05-03T23:08:53.249Z,102622.22
2023-05-03T23:11:23.651Z,102632.75
2023-05-03T23:13:52.130Z,102627.41
2023-05-03T23:16:21.914Z,102623.66
2023-05-03T23:18:50.148Z,102634.13
2023-05-03T23:21:18.665Z,102623.53
2023-05-03T23:23:47.080Z,102625.34
2023-05-03T23:26:15.415Z,102629.03
2023-05-03T23:28:44.125Z,102625.44
2023-05-03T23:31:12.684Z,102630.63
2023-05-03T23:33:42.777Z,102628.78
2023-05-03T23:36:11.468Z,102619.81
2023-05-03T23:38:39.882Z,102626.13
2023-05-03T23:41:08.085Z,102628.63
2023-05-03T23:43:36.524Z,102630.53
2023-05-03T23:46:04.672Z,102632.00
2023-05-03T23:48:32.936Z,102625.00
2023-05-03T23:51:02.733Z,102630.06
2023-05-03T23:53:30.820Z,102631.72
2023-05-03T23:55:58.939Z,102631.94
2023-05-03T23:58:27.378Z,102633.50
